Time;durP1;ratioP1;P1;durP2;ratioP2;P2;SDS_P1;SDS_P2;PMS_P1;PMS_P2;Temp;Humidity;BMP_temperature;BMP_pressure;BME280_temperature;BME280_humidity;BME280_pressure;Samples;Min_cycle;Max_cycle;Signal;HPM_P1;HPM_P2
2022/04/21 00:00:20;;;;;;;5.65;4.38;;;;;;;;;;5021428;28;20037;-69
2022/04/21 00:02:46;;;;;;;6.80;4.75;;;;;;;;;;5021870;28;20123;-69
2022/04/21 00:05:12;;;;;;;8.25;4.78;;;;;;;;;;5018956;28;20041;-69
2022/04/21 00:07:38;;;;;;;6.80;4.35;;;;;;;;;;5021666;28;20078;-69
2022/04/21 00:10:05;;;;;;;7.10;4.60;;;;;;;;;;5021616;28;20049;-69
2022/04/21 00:12:30;;;;;;;6.82;3.92;;;;;;;;;;5020199;28;20037;-69
2022/04/21 00:14:56;;;;;;;6.13;3.95;;;;;;;;;;5021699;28;20044;-69
2022/04/21 00:17:22;;;;;;;8.93;4.53;;;;;;;;;;5017977;28;20115;-69
2022/04/21 00:19:47;;;;;;;8.02;4.82;;;;;;;;;;5021272;28;20037;-69
2022/04/21 00:24:57;;;;;;;7.03;4.63;;;;;;;;;;5021199;28;20047;-69
2022/04/21 00:27:22;;;;;;;6.30;4.63;;;;;;;;;;5019806;28;20045;-69
2022/04/21 00:29:48;;;;;;;6.93;4.57;;;;;;;;;;5019840;28;20048;-69
2022/04/21 00:32:13;;;;;;;7.05;4.60;;;;;;;;;;5021125;28;20040;-69
2022/04/21 00:34:39;;;;;;;5.78;4.65;;;;;;;;;;5021689;28;20129;-69
2022/04/21 00:37:05;;;;;;;9.55;4.80;;;;;;;;;;5020991;28;20112;-69
2022/04/21 00:39:31;;;;;;;7.57;4.88;;;;;;;;;;5019458;28;20029;-68
2022/04/21 00:42:01;;;;;;;6.93;4.85;;;;;;;;;;5020537;28;20120;-69
2022/04/21 00:44:27;;;;;;;6.45;4.55;;;;;;;;;;5021494;28;20044;-69
2022/04/21 00:46:55;;;;;;;7.40;4.85;;;;;;;;;;5020841;28;20103;-69
2022/04/21 00:49:21;;;;;;;7.75;5.22;;;;;;;;;;5019388;28;20040;-69
2022/04/21 00:51:48;;;;;;;5.95;4.60;;;;;;;;;;5021030;28;20421;-69
2022/04/21 00:54:15;;;;;;;7.47;5.05;;;;;;;;;;5020475;28;20103;-70
2022/04/21 00:56:42;;;;;;;6.53;4.80;;;;;;;;;;5021008;28;20176;-69
2022/04/21 00:59:09;;;;;;;8.50;5.25;;;;;;;;;;5020284;28;20060;-69
2022/04/21 01:04:20;;;;;;;6.68;4.90;;;;;;;;;;5020992;28;20119;-69
2022/04/21 01:06:46;;;;;;;10.75;5.50;;;;;;;;;;5020642;28;20423;-69
2022/04/21 01:09:11;;;;;;;7.03;5.47;;;;;;;;;;5020300;28;20041;-69
2022/04/21 01:11:38;;;;;;;7.07;5.50;;;;;;;;;;5019695;28;20040;-69
2022/04/21 01:14:04;;;;;;;8.90;5.68;;;;;;;;;;5019343;28;20038;-69
2022/04/21 01:16:29;;;;;;;11.32;5.45;;;;;;;;;;5021852;28;20047;-69
2022/04/21 01:18:56;;;;;;;7.60;5.10;;;;;;;;;;5024547;28;20248;-69
2022/04/21 01:21:21;;;;;;;8.35;5.32;;;;;;;;;;5023349;28;20469;-69
2022/04/21 01:23:47;;;;;;;10.85;5.80;;;;;;;;;;5023718;28;20486;-69
2022/04/21 01:26:15;;;;;;;7.63;5.60;;;;;;;;;;5022802;28;20046;-69
2022/04/21 01:28:41;;;;;;;6.30;4.65;;;;;;;;;;5023953;28;20067;-69
2022/04/21 01:31:06;;;;;;;9.02;5.90;;;;;;;;;;5024173;28;20483;-68
2022/04/21 01:33:31;;;;;;;9.00;5.03;;;;;;;;;;5023450;28;20037;-69
2022/04/21 01:35:57;;;;;;;9.02;5.57;;;;;;;;;;5022553;28;20044;-69
2022/04/21 01:41:10;;;;;;;11.70;5.45;;;;;;;;;;5024258;28;20045;-69
2022/04/21 01:43:37;;;;;;;7.90;5.60;;;;;;;;;;5024460;28;20033;-69
2022/04/21 01:46:03;;;;;;;8.65;5.53;;;;;;;;;;5003965;28;20041;-69
2022/04/21 01:48:29;;;;;;;9.25;5.78;;;;;;;;;;5024026;28;20034;-69
2022/04/21 01:50:55;;;;;;;9.52;6.15;;;;;;;;;;5023995;28;20037;-69
2022/04/21 01:53:20;;;;;;;8.70;5.85;;;;;;;;;;5016261;28;20051;-69
2022/04/21 01:55:46;;;;;;;8.82;6.25;;;;;;;;;;5024619;28;20037;-68
2022/04/21 01:58:12;;;;;;;11.80;7.40;;;;;;;;;;5023617;28;20034;-68
2022/04/21 02:00:38;;;;;;;13.57;8.70;;;;;;;;;;5023941;28;20068;-68
2022/04/21 02:03:03;;;;;;;10.40;7.05;;;;;;;;;;5024191;28;20061;-68
2022/04/21 02:05:29;;;;;;;10.82;8.10;;;;;;;;;;5024412;28;20096;-68
2022/04/21 02:07:54;;;;;;;10.85;7.90;;;;;;;;;;5022325;28;20409;-68
2022/04/21 02:10:21;;;;;;;10.73;7.63;;;;;;;;;;5023900;28;20049;-68
2022/04/21 02:12:47;;;;;;;10.00;7.72;;;;;;;;;;5006045;28;20457;-68
2022/04/21 02:15:13;;;;;;;13.23;8.02;;;;;;;;;;5024028;28;20478;-68
2022/04/21 02:17:39;;;;;;;12.02;7.07;;;;;;;;;;5022047;28;20037;-68
2022/04/21 02:20:07;;;;;;;11.20;7.03;;;;;;;;;;5023281;28;20037;-68
2022/04/21 02:22:35;;;;;;;17.73;7.03;;;;;;;;;;5023779;28;20037;-68
2022/04/21 02:25:04;;;;;;;8.18;6.22;;;;;;;;;;5023860;28;20045;-68
2022/04/21 02:27:30;;;;;;;6.68;5.28;;;;;;;;;;5023219;28;20037;-68
2022/04/21 02:29:56;;;;;;;10.73;5.50;;;;;;;;;;5021992;28;20052;-68
2022/04/21 02:32:21;;;;;;;9.93;5.53;;;;;;;;;;5022831;28;20041;-68
2022/04/21 02:34:47;;;;;;;7.07;4.72;;;;;;;;;;5032583;28;20158;-67
2022/04/21 02:37:13;;;;;;;8.35;5.22;;;;;;;;;;5023427;28;20049;-68
2022/04/21 02:39:38;;;;;;;10.75;6.20;;;;;;;;;;5022002;28;21210;-68
2022/04/21 02:42:04;;;;;;;7.95;5.30;;;;;;;;;;5022707;28;20079;-68
2022/04/21 02:44:30;;;;;;;10.63;5.95;;;;;;;;;;5023538;28;20528;-68
2022/04/21 02:46:58;;;;;;;7.53;4.95;;;;;;;;;;5022505;28;20056;-68
2022/04/21 02:49:23;;;;;;;8.07;5.65;;;;;;;;;;5022612;28;21034;-68
2022/04/21 02:51:49;;;;;;;8.50;5.80;;;;;;;;;;5021749;28;20037;-68
2022/04/21 02:59:44;;;;;;;8.10;5.03;;;;;;;;;;5022975;28;20474;-68
2022/04/21 03:02:09;;;;;;;7.90;5.00;;;;;;;;;;5021165;28;20107;-68
2022/04/21 03:04:35;;;;;;;8.80;5.22;;;;;;;;;;5023076;28;20037;-68
2022/04/21 03:07:00;;;;;;;11.40;4.88;;;;;;;;;;5022121;28;20044;-68
2022/04/21 03:09:26;;;;;;;6.93;4.80;;;;;;;;;;5022920;28;20060;-68
2022/04/21 03:11:51;;;;;;;8.02;5.40;;;;;;;;;;5022686;28;20045;-69
2022/04/21 03:14:18;;;;;;;10.48;5.63;;;;;;;;;;5021675;28;20052;-69
2022/04/21 03:16:44;;;;;;;11.18;5.60;;;;;;;;;;5023391;28;20040;-68
2022/04/21 03:19:09;;;;;;;10.43;5.53;;;;;;;;;;5021759;28;20040;-70
2022/04/21 03:24:19;;;;;;;7.38;5.18;;;;;;;;;;5023497;28;20076;-70
2022/04/21 03:26:52;;;;;;;10.20;5.88;;;;;;;;;;5022822;28;20414;-69
2022/04/21 03:29:18;;;;;;;9.73;6.18;;;;;;;;;;5021899;28;20037;-69
2022/04/21 03:31:44;;;;;;;8.80;6.05;;;;;;;;;;5022072;28;20080;-69
2022/04/21 03:34:12;;;;;;;9.10;5.50;;;;;;;;;;5019636;28;20079;-70
2022/04/21 03:36:38;;;;;;;8.93;6.53;;;;;;;;;;5020295;28;20041;-69
2022/04/21 03:39:04;;;;;;;11.55;6.22;;;;;;;;;;5020870;28;20045;-69
2022/04/21 03:41:29;;;;;;;10.25;6.32;;;;;;;;;;5022669;28;20140;-70
2022/04/21 03:43:54;;;;;;;8.35;5.47;;;;;;;;;;5023394;28;20190;-69
2022/04/21 03:46:20;;;;;;;9.43;5.97;;;;;;;;;;5019030;28;20041;-70
2022/04/21 03:48:45;;;;;;;8.68;5.97;;;;;;;;;;5021191;28;20068;-70
2022/04/21 03:51:11;;;;;;;9.63;6.07;;;;;;;;;;5020334;28;20037;-69
2022/04/21 03:53:36;;;;;;;9.05;5.68;;;;;;;;;;5017910;28;20049;-69
2022/04/21 03:56:02;;;;;;;9.10;6.80;;;;;;;;;;5021027;28;20132;-69
2022/04/21 03:58:27;;;;;;;13.88;7.13;;;;;;;;;;5020812;28;20045;-69
2022/04/21 04:00:53;;;;;;;8.88;6.25;;;;;;;;;;5021003;28;20116;-69
2022/04/21 04:03:18;;;;;;;11.77;6.35;;;;;;;;;;5017681;28;20073;-69
2022/04/21 04:05:43;;;;;;;8.60;6.07;;;;;;;;;;5021190;28;20041;-69
2022/04/21 04:10:53;;;;;;;12.13;6.97;;;;;;;;;;5021677;28;20033;-69
2022/04/21 04:13:19;;;;;;;10.88;7.03;;;;;;;;;;5021410;28;20397;-69
2022/04/21 04:15:48;;;;;;;9.75;6.13;;;;;;;;;;5021924;28;20468;-69
2022/04/21 04:18:15;;;;;;;11.85;6.50;;;;;;;;;;5019730;28;20038;-69
2022/04/21 04:20:40;;;;;;;10.32;7.22;;;;;;;;;;5025187;28;20126;-69
2022/04/21 04:23:06;;;;;;;9.45;6.57;;;;;;;;;;5004121;28;21019;-69
2022/04/21 04:25:31;;;;;;;12.52;7.40;;;;;;;;;;5021639;28;20041;-69
2022/04/21 04:27:57;;;;;;;10.50;6.43;;;;;;;;;;5019890;28;20063;-69
2022/04/21 04:30:22;;;;;;;11.75;6.72;;;;;;;;;;5019020;28;20111;-69
2022/04/21 04:32:48;;;;;;;10.55;7.20;;;;;;;;;;5021470;28;20513;-68
2022/04/21 04:35:13;;;;;;;11.82;7.13;;;;;;;;;;5021014;28;20040;-69
2022/04/21 04:37:39;;;;;;;12.35;6.63;;;;;;;;;;5021301;28;20056;-69
2022/04/21 04:40:05;;;;;;;9.55;6.60;;;;;;;;;;5020511;28;20040;-69
2022/04/21 04:42:31;;;;;;;9.13;6.88;;;;;;;;;;5018410;28;20041;-70
2022/04/21 04:47:41;;;;;;;10.23;6.85;;;;;;;;;;5021370;28;20053;-69
2022/04/21 04:50:07;;;;;;;12.05;6.60;;;;;;;;;;5020099;28;20486;-69
2022/04/21 04:52:33;;;;;;;14.38;6.93;;;;;;;;;;5018868;28;20128;-69
2022/04/21 04:54:58;;;;;;;10.57;6.45;;;;;;;;;;5019342;28;20124;-68
2022/04/21 04:57:24;;;;;;;9.25;6.72;;;;;;;;;;5021057;28;20041;-69
2022/04/21 04:59:49;;;;;;;12.55;6.68;;;;;;;;;;5020139;28;20081;-69
2022/04/21 05:02:17;;;;;;;10.10;6.80;;;;;;;;;;5019298;28;20075;-69
2022/04/21 05:04:42;;;;;;;9.07;6.30;;;;;;;;;;5020787;28;20041;-69
2022/04/21 05:07:08;;;;;;;9.48;6.72;;;;;;;;;;5020505;28;20075;-69
2022/04/21 05:09:33;;;;;;;13.07;7.18;;;;;;;;;;5020751;28;20041;-69
2022/04/21 05:11:59;;;;;;;8.27;6.65;;;;;;;;;;5020500;28;20052;-69
2022/04/21 05:14:25;;;;;;;8.77;6.38;;;;;;;;;;5019909;28;20450;-70
2022/04/21 05:16:51;;;;;;;10.32;6.72;;;;;;;;;;5020489;28;20034;-69
2022/04/21 05:19:19;;;;;;;10.23;6.55;;;;;;;;;;5018958;28;20389;-70
2022/04/21 05:21:46;;;;;;;13.13;6.93;;;;;;;;;;5019158;28;20639;-69
2022/04/21 05:24:13;;;;;;;9.82;6.35;;;;;;;;;;5016756;28;20145;-70
2022/04/21 05:26:42;;;;;;;10.93;7.43;;;;;;;;;;5019387;28;20067;-70
2022/04/21 05:31:57;;;;;;;10.38;6.43;;;;;;;;;;5019433;28;20405;-70
2022/04/21 05:34:23;;;;;;;8.43;6.18;;;;;;;;;;5020370;28;20195;-69
2022/04/21 05:36:49;;;;;;;9.05;6.85;;;;;;;;;;5019897;28;20025;-70
2022/04/21 05:39:14;;;;;;;9.90;7.15;;;;;;;;;;5018862;28;20033;-70
2022/04/21 05:41:40;;;;;;;18.25;7.18;;;;;;;;;;5019483;28;20045;-69
2022/04/21 05:44:07;;;;;;;11.35;6.88;;;;;;;;;;5020367;28;20044;-69
2022/04/21 05:46:33;;;;;;;10.98;6.72;;;;;;;;;;5017861;28;20673;-69
2022/04/21 05:48:59;;;;;;;11.68;7.50;;;;;;;;;;5016267;28;20879;-69
2022/04/21 05:51:24;;;;;;;9.93;6.82;;;;;;;;;;5020192;28;20034;-69
2022/04/21 05:53:51;;;;;;;9.88;7.30;;;;;;;;;;5020073;28;20045;-69
2022/04/21 05:56:17;;;;;;;14.40;7.20;;;;;;;;;;5018882;28;20083;-69
2022/04/21 05:58:42;;;;;;;9.07;6.97;;;;;;;;;;5011609;28;20045;-69
2022/04/21 06:01:09;;;;;;;12.32;7.32;;;;;;;;;;5019656;28;20033;-69
2022/04/21 06:03:39;;;;;;;11.25;7.60;;;;;;;;;;5022924;28;20037;-69
2022/04/21 06:06:06;;;;;;;14.98;8.10;;;;;;;;;;5023450;28;20033;-69
2022/04/21 06:08:31;;;;;;;10.45;7.30;;;;;;;;;;5021029;28;20053;-69
2022/04/21 06:10:57;;;;;;;10.85;7.25;;;;;;;;;;5023229;28;20037;-70
2022/04/21 06:13:24;;;;;;;11.07;7.32;;;;;;;;;;5022647;28;20144;-70
2022/04/21 06:15:50;;;;;;;12.35;6.22;;;;;;;;;;5023225;28;20029;-70
2022/04/21 06:18:15;;;;;;;11.15;7.15;;;;;;;;;;5023767;28;20037;-71
2022/04/21 06:20:41;;;;;;;11.32;7.75;;;;;;;;;;5022077;28;20042;-71
2022/04/21 06:23:06;;;;;;;11.70;7.45;;;;;;;;;;5023775;28;20075;-71
2022/04/21 06:25:32;;;;;;;9.43;7.07;;;;;;;;;;5023506;28;20033;-69
2022/04/21 06:27:57;;;;;;;19.23;7.60;;;;;;;;;;5023082;28;20029;-68
2022/04/21 06:30:23;;;;;;;10.38;6.78;;;;;;;;;;5021445;28;20389;-69
2022/04/21 06:32:49;;;;;;;9.23;7.80;;;;;;;;;;5024085;28;20037;-68
2022/04/21 06:35:15;;;;;;;9.68;7.40;;;;;;;;;;5022059;28;20120;-69
2022/04/21 06:37:42;;;;;;;10.50;7.85;;;;;;;;;;5023835;28;20124;-68
2022/04/21 06:40:08;;;;;;;9.93;6.78;;;;;;;;;;5022971;28;20503;-68
2022/04/21 06:42:35;;;;;;;15.30;8.32;;;;;;;;;;5022019;28;20041;-68
2022/04/21 06:48:08;;;;;;;13.85;7.72;;;;;;;;;;5023191;28;20046;-68
2022/04/21 06:50:39;;;;;;;11.32;7.35;;;;;;;;;;5008911;28;20045;-69
2022/04/21 06:53:06;;;;;;;13.85;7.95;;;;;;;;;;5017230;28;20045;-70
2022/04/21 06:55:33;;;;;;;10.13;7.32;;;;;;;;;;5020634;28;20040;-72
2022/04/21 06:57:58;;;;;;;9.95;7.40;;;;;;;;;;5019081;28;20114;-70
2022/04/21 07:00:26;;;;;;;11.93;7.40;;;;;;;;;;5013428;28;20719;-71
2022/04/21 07:02:57;;;;;;;10.88;7.40;;;;;;;;;;5020157;28;20103;-71
2022/04/21 07:05:24;;;;;;;10.07;7.15;;;;;;;;;;5018076;28;20060;-71
2022/04/21 07:07:49;;;;;;;11.65;6.78;;;;;;;;;;5021337;28;20619;-71
2022/04/21 07:10:16;;;;;;;7.75;6.78;;;;;;;;;;5020941;28;20486;-72
2022/04/21 07:12:42;;;;;;;10.13;6.97;;;;;;;;;;5019289;28;20029;-71
2022/04/21 07:15:10;;;;;;;16.17;7.07;;;;;;;;;;5018825;28;20060;-71
2022/04/21 07:17:36;;;;;;;9.68;7.03;;;;;;;;;;5019423;28;20041;-70
2022/04/21 07:20:04;;;;;;;11.35;7.20;;;;;;;;;;5020218;28;20041;-69
2022/04/21 07:22:29;;;;;;;9.02;6.72;;;;;;;;;;5022174;28;20042;-70
2022/04/21 07:24:56;;;;;;;12.27;6.85;;;;;;;;;;5021334;28;20045;-69
2022/04/21 07:27:22;;;;;;;9.60;7.03;;;;;;;;;;5020517;28;20513;-69
2022/04/21 07:29:48;;;;;;;11.77;7.35;;;;;;;;;;5019536;28;20037;-70
2022/04/21 07:32:14;;;;;;;10.25;6.65;;;;;;;;;;5021117;28;20513;-69
2022/04/21 07:34:39;;;;;;;9.98;6.93;;;;;;;;;;5018697;28;20041;-69
2022/04/21 07:37:05;;;;;;;10.15;6.72;;;;;;;;;;5018787;28;20033;-70
2022/04/21 07:39:32;;;;;;;10.05;6.57;;;;;;;;;;5021098;28;20044;-70
2022/04/21 07:41:58;;;;;;;11.10;6.50;;;;;;;;;;5020850;28;20037;-69
2022/04/21 07:44:28;;;;;;;7.65;6.20;;;;;;;;;;5021169;28;20037;-69
2022/04/21 07:46:54;;;;;;;12.43;6.07;;;;;;;;;;5002493;28;20063;-70
2022/04/21 07:54:49;;;;;;;9.27;6.32;;;;;;;;;;5027544;28;20034;-69
2022/04/21 07:57:14;;;;;;;8.43;5.85;;;;;;;;;;5021125;28;20287;-69
2022/04/21 07:59:40;;;;;;;7.68;6.32;;;;;;;;;;5017863;28;20520;-71
2022/04/21 08:02:08;;;;;;;8.32;5.80;;;;;;;;;;5018812;28;20088;-70
2022/04/21 08:04:34;;;;;;;7.85;5.75;;;;;;;;;;5020379;28;20041;-70
2022/04/21 08:07:00;;;;;;;7.53;5.68;;;;;;;;;;5020389;28;20041;-71
2022/04/21 08:09:25;;;;;;;5.80;5.18;;;;;;;;;;5019291;28;20038;-70
2022/04/21 08:11:51;;;;;;;9.40;5.70;;;;;;;;;;5020532;28;20045;-71
2022/04/21 08:14:17;;;;;;;6.07;5.10;;;;;;;;;;5021749;28;20065;-72
2022/04/21 08:16:43;;;;;;;8.27;5.45;;;;;;;;;;5021608;28;20550;-74
2022/04/21 08:19:09;;;;;;;12.38;5.20;;;;;;;;;;5021136;28;20048;-72
2022/04/21 08:21:36;;;;;;;6.43;5.15;;;;;;;;;;5020602;28;20544;-72
2022/04/21 08:32:33;;;;;;;11.15;4.97;;;;;;;;;;5021534;28;20604;-72
2022/04/21 08:32:36;;;;;;;7.22;5.30;;;;;;;;;;5019775;28;20125;-72
2022/04/21 08:35:03;;;;;;;8.35;6.18;;;;;;;;;;5019938;28;20834;-76
2022/04/21 08:37:33;;;;;;;7.85;5.57;;;;;;;;;;5000376;28;20648;-69
2022/04/21 08:39:58;;;;;;;7.53;5.57;;;;;;;;;;5016171;28;20041;-70
2022/04/21 08:42:26;;;;;;;10.48;5.88;;;;;;;;;;5016844;28;20043;-70
2022/04/21 08:44:53;;;;;;;7.03;5.63;;;;;;;;;;5017059;28;20057;-71
2022/04/21 08:47:19;;;;;;;5.93;5.32;;;;;;;;;;5017974;28;20994;-71
2022/04/21 08:49:50;;;;;;;7.40;5.60;;;;;;;;;;5018373;28;20037;-71
2022/04/21 08:52:17;;;;;;;6.60;5.63;;;;;;;;;;5020463;28;20877;-71
2022/04/21 08:54:42;;;;;;;7.85;5.68;;;;;;;;;;5019668;28;20051;-71
2022/04/21 08:57:09;;;;;;;7.95;5.85;;;;;;;;;;5019695;28;20029;-71
2022/04/21 08:59:35;;;;;;;8.02;6.22;;;;;;;;;;5019733;28;20159;-72
2022/04/21 09:02:00;;;;;;;7.38;5.47;;;;;;;;;;5021063;28;20128;-72
2022/04/21 09:04:26;;;;;;;6.25;5.35;;;;;;;;;;5020598;28;20045;-72
2022/04/21 09:06:52;;;;;;;8.20;5.13;;;;;;;;;;5021063;28;20351;-72
2022/04/21 09:09:21;;;;;;;8.90;6.00;;;;;;;;;;5018135;28;20474;-70
2022/04/21 09:11:53;;;;;;;8.15;5.00;;;;;;;;;;5020442;28;20056;-71
2022/04/21 09:14:20;;;;;;;7.65;4.93;;;;;;;;;;5017926;28;20530;-69
2022/04/21 09:16:47;;;;;;;7.55;5.03;;;;;;;;;;5018157;28;20065;-69
2022/04/21 09:19:16;;;;;;;7.88;4.95;;;;;;;;;;5018246;28;20560;-68
2022/04/21 09:21:42;;;;;;;7.35;5.35;;;;;;;;;;5021105;28;20044;-68
2022/04/21 09:24:23;;;;;;;9.20;5.05;;;;;;;;;;5019883;28;20033;-68
2022/04/21 09:26:48;;;;;;;5.82;5.15;;;;;;;;;;5018997;28;20061;-68
2022/04/21 09:29:31;;;;;;;9.43;5.35;;;;;;;;;;5015182;28;20585;-68
2022/04/21 09:32:02;;;;;;;10.60;5.85;;;;;;;;;;5016547;28;20037;-68
2022/04/21 09:34:29;;;;;;;8.70;5.40;;;;;;;;;;5018687;28;20037;-68
2022/04/21 09:36:56;;;;;;;7.55;5.38;;;;;;;;;;5019609;28;20204;-68
2022/04/21 09:39:22;;;;;;;10.25;5.25;;;;;;;;;;5022738;28;20045;-68
2022/04/21 09:41:53;;;;;;;5.72;4.47;;;;;;;;;;5023006;28;20453;-70
2022/04/21 09:47:05;;;;;;;7.38;5.22;;;;;;;;;;5023995;28;20041;-69
2022/04/21 09:49:38;;;;;;;9.23;5.30;;;;;;;;;;5023971;28;20037;-69
2022/04/21 09:52:05;;;;;;;10.00;5.13;;;;;;;;;;5022387;28;20045;-67
2022/04/21 09:54:31;;;;;;;6.55;4.72;;;;;;;;;;5023010;28;20056;-67
2022/04/21 09:56:56;;;;;;;10.77;4.75;;;;;;;;;;5024049;28;20108;-67
2022/04/21 09:59:23;;;;;;;8.73;4.93;;;;;;;;;;5023776;28;20116;-68
2022/04/21 10:01:50;;;;;;;6.88;4.55;;;;;;;;;;5022736;28;20490;-67
2022/04/21 10:04:19;;;;;;;5.93;5.00;;;;;;;;;;5022186;28;20029;-67
2022/04/21 10:06:44;;;;;;;6.68;5.03;;;;;;;;;;5024251;28;20034;-69
2022/04/21 10:09:12;;;;;;;7.55;4.95;;;;;;;;;;5023412;28;20041;-68
2022/04/21 10:11:40;;;;;;;5.97;4.55;;;;;;;;;;5024166;28;20034;-68
2022/04/21 10:14:06;;;;;;;8.20;4.40;;;;;;;;;;5022347;28;20041;-69
2022/04/21 10:16:32;;;;;;;6.00;4.93;;;;;;;;;;5021306;28;20052;-68
2022/04/21 10:19:00;;;;;;;6.05;4.38;;;;;;;;;;5023478;28;20044;-68
2022/04/21 10:21:48;;;;;;;8.27;4.38;;;;;;;;;;5023655;28;20049;-69
2022/04/21 10:24:21;;;;;;;5.85;4.00;;;;;;;;;;5023417;28;20030;-69
2022/04/21 10:26:47;;;;;;;5.60;4.57;;;;;;;;;;5022613;28;20472;-68
2022/04/21 10:29:21;;;;;;;7.03;4.90;;;;;;;;;;5023283;28;20574;-69
2022/04/21 10:32:05;;;;;;;6.20;4.25;;;;;;;;;;5023393;28;20055;-68
2022/04/21 10:34:36;;;;;;;5.80;4.88;;;;;;;;;;5022203;28;20044;-69
2022/04/21 10:37:20;;;;;;;5.05;4.18;;;;;;;;;;5022410;28;20387;-69
2022/04/21 10:40:05;;;;;;;7.38;4.93;;;;;;;;;;5022840;28;20041;-69
2022/04/21 10:42:52;;;;;;;7.68;4.75;;;;;;;;;;5023913;28;20199;-69
2022/04/21 10:45:26;;;;;;;5.10;4.28;;;;;;;;;;5022383;28;20037;-69
2022/04/21 10:48:14;;;;;;;5.93;4.70;;;;;;;;;;5022348;28;20045;-66
2022/04/21 10:50:44;;;;;;;7.28;4.13;;;;;;;;;;5021779;28;20063;-66
2022/04/21 10:58:41;;;;;;;6.47;4.95;;;;;;;;;;5021595;28;20095;-66
2022/04/21 11:01:13;;;;;;;9.93;4.60;;;;;;;;;;5022350;28;20033;-68
2022/04/21 11:03:41;;;;;;;5.72;4.57;;;;;;;;;;5005664;28;20041;-68
2022/04/21 11:06:11;;;;;;;5.60;4.78;;;;;;;;;;5022843;28;20029;-67
2022/04/21 11:08:37;;;;;;;10.88;5.18;;;;;;;;;;5021655;28;20037;-67
2022/04/21 11:11:04;;;;;;;6.15;4.00;;;;;;;;;;5021127;28;20041;-67
2022/04/21 11:14:01;;;;;;;8.45;4.35;;;;;;;;;;5022561;28;20041;-67
2022/04/21 11:16:45;;;;;;;6.40;4.63;;;;;;;;;;5011253;28;20041;-68
2022/04/21 11:19:29;;;;;;;9.20;5.15;;;;;;;;;;5004755;28;20131;-68
2022/04/21 11:21:56;;;;;;;5.22;4.72;;;;;;;;;;5021592;28;20029;-68
2022/04/21 11:24:22;;;;;;;5.88;4.47;;;;;;;;;;5022548;28;20037;-68
2022/04/21 11:26:55;;;;;;;6.20;4.47;;;;;;;;;;5021598;28;20495;-69
2022/04/21 11:29:21;;;;;;;5.25;4.75;;;;;;;;;;5021237;28;20033;-68
2022/04/21 11:31:46;;;;;;;11.70;4.50;;;;;;;;;;5020744;28;20029;-69
2022/04/21 11:34:20;;;;;;;8.35;4.82;;;;;;;;;;5022272;28;20128;-69
2022/04/21 11:36:46;;;;;;;4.78;4.38;;;;;;;;;;5022729;28;20056;-69
2022/04/21 11:39:13;;;;;;;6.65;4.03;;;;;;;;;;5025418;28;20049;-68
2022/04/21 11:41:44;;;;;;;4.43;3.53;;;;;;;;;;5008648;28;20041;-68
2022/04/21 11:44:10;;;;;;;6.25;3.80;;;;;;;;;;5020270;28;20042;-68
2022/04/21 11:46:39;;;;;;;8.20;3.83;;;;;;;;;;5021621;28;20033;-70
2022/04/21 11:49:08;;;;;;;6.03;4.47;;;;;;;;;;5021654;28;20739;-69
2022/04/21 11:51:34;;;;;;;6.65;4.00;;;;;;;;;;5021949;28;20080;-69
2022/04/21 11:54:07;;;;;;;7.63;5.05;;;;;;;;;;5018799;28;20060;-70
2022/04/21 11:56:32;;;;;;;5.05;4.40;;;;;;;;;;5019310;28;20048;-70
2022/04/21 11:59:07;;;;;;;5.78;3.95;;;;;;;;;;5019302;28;20040;-69
2022/04/21 12:07:03;;;;;;;5.10;4.22;;;;;;;;;;5022228;28;20533;-69
2022/04/21 12:09:34;;;;;;;10.20;3.75;;;;;;;;;;5020817;28;20047;-69
2022/04/21 12:12:02;;;;;;;9.73;4.20;;;;;;;;;;5020847;28;20049;-69
2022/04/21 12:14:29;;;;;;;5.80;3.72;;;;;;;;;;5021245;28;20049;-69
2022/04/21 12:16:58;;;;;;;10.25;4.10;;;;;;;;;;5020086;28;20045;-68
2022/04/21 12:19:33;;;;;;;4.68;4.13;;;;;;;;;;5020796;28;20121;-68
2022/04/21 12:22:00;;;;;;;5.43;4.05;;;;;;;;;;5019608;28;20048;-68
2022/04/21 12:24:29;;;;;;;5.15;4.35;;;;;;;;;;5021347;28;20051;-68
2022/04/21 12:26:55;;;;;;;8.80;4.22;;;;;;;;;;5020191;28;20445;-68
2022/04/21 12:29:23;;;;;;;6.85;4.18;;;;;;;;;;5020415;28;20490;-69
2022/04/21 12:31:53;;;;;;;10.98;3.95;;;;;;;;;;5019684;28;20038;-68
2022/04/21 12:34:30;;;;;;;5.68;3.95;;;;;;;;;;5020276;28;20041;-68
2022/04/21 12:37:02;;;;;;;5.25;4.18;;;;;;;;;;5033353;22;20155;-70
2022/04/21 12:39:29;;;;;;;;;;;;;;;;;;5020840;28;20095;-70
2022/04/21 12:41:55;;;;;;;4.90;4.40;;;;;;;;;;5024390;28;19913;-71
2022/04/21 12:44:25;;;;;;;6.00;4.45;;;;;;;;;;5021166;28;20416;-70
2022/04/21 12:47:03;;;;;;;13.27;4.60;;;;;;;;;;5020605;28;20029;-70
2022/04/21 12:50:01;;;;;;;5.47;4.13;;;;;;;;;;5023897;28;20045;-70
2022/04/21 12:52:26;;;;;;;7.20;4.00;;;;;;;;;;5027841;28;20079;-69
2022/04/21 12:54:52;;;;;;;6.53;4.75;;;;;;;;;;5028374;28;20289;-71
2022/04/21 12:57:17;;;;;;;27.55;7.30;;;;;;;;;;5029587;28;20037;-71
2022/04/21 12:59:44;;;;;;;4.53;3.83;;;;;;;;;;5023205;28;20037;-71
2022/04/21 13:02:10;;;;;;;45.78;7.28;;;;;;;;;;5023921;28;20037;-70
2022/04/21 13:04:36;;;;;;;4.70;3.95;;;;;;;;;;5028035;28;20027;-70
2022/04/21 13:07:02;;;;;;;4.03;3.63;;;;;;;;;;5029073;28;20039;-70
2022/04/21 13:09:28;;;;;;;12.93;4.32;;;;;;;;;;5025215;28;20041;-69
2022/04/21 13:11:53;;;;;;;134.43;15.48;;;;;;;;;;5019472;28;20509;-69
2022/04/21 13:14:19;;;;;;;47.10;6.20;;;;;;;;;;5024826;28;20413;-69
2022/04/21 13:16:44;;;;;;;93.57;9.68;;;;;;;;;;5019609;28;20068;-69
2022/04/21 13:19:09;;;;;;;42.75;6.93;;;;;;;;;;5022494;28;20090;-69
2022/04/21 13:21:53;;;;;;;5.90;3.97;;;;;;;;;;5019358;28;20049;-69
2022/04/21 13:24:25;;;;;;;6.13;4.10;;;;;;;;;;5020611;28;20041;-69
2022/04/21 13:26:55;;;;;;;6.50;4.55;;;;;;;;;;5020455;28;20505;-69
2022/04/21 13:29:21;;;;;;;7.10;4.72;;;;;;;;;;5021100;28;21076;-70
2022/04/21 13:34:31;;;;;;;4.68;4.07;;;;;;;;;;5025707;28;20843;-69
2022/04/21 13:36:57;;;;;;;5.18;4.68;;;;;;;;;;5020157;28;20033;-69
2022/04/21 13:39:22;;;;;;;21.63;5.90;;;;;;;;;;5021103;28;20048;-70
2022/04/21 13:41:48;;;;;;;36.03;6.25;;;;;;;;;;5021257;28;20049;-70
2022/04/21 13:44:14;;;;;;;4.10;3.72;;;;;;;;;;5022578;28;20014;-70
2022/04/21 13:46:40;;;;;;;12.15;4.25;;;;;;;;;;5026506;28;20045;-70
2022/04/21 13:49:07;;;;;;;8.70;3.80;;;;;;;;;;5022238;28;20064;-70
2022/04/21 13:51:33;;;;;;;18.80;5.22;;;;;;;;;;5020149;28;20529;-70
2022/04/21 13:53:58;;;;;;;13.70;4.18;;;;;;;;;;5020681;28;20040;-69
2022/04/21 13:56:24;;;;;;;4.13;3.75;;;;;;;;;;5025189;28;20113;-69
2022/04/21 13:58:50;;;;;;;7.05;3.47;;;;;;;;;;5023712;28;20041;-69
2022/04/21 14:01:16;;;;;;;5.40;3.75;;;;;;;;;;5024555;28;20044;-68
2022/04/21 14:03:43;;;;;;;10.05;4.18;;;;;;;;;;5022127;28;20051;-68
2022/04/21 14:06:09;;;;;;;8.77;3.95;;;;;;;;;;5027981;28;20287;-69
2022/04/21 14:08:36;;;;;;;8.02;4.03;;;;;;;;;;5028593;28;20828;-69
2022/04/21 14:11:07;;;;;;;6.05;3.83;;;;;;;;;;5024990;28;20041;-69
2022/04/21 14:13:34;;;;;;;5.50;3.70;;;;;;;;;;5028658;28;20488;-69
2022/04/21 14:16:01;;;;;;;5.07;3.80;;;;;;;;;;5025442;28;20098;-69
2022/04/21 14:18:27;;;;;;;5.22;4.35;;;;;;;;;;5024298;28;20040;-69
2022/04/21 14:20:54;;;;;;;5.47;3.35;;;;;;;;;;5027996;28;20064;-69
2022/04/21 14:23:23;;;;;;;4.65;3.75;;;;;;;;;;5027899;28;20045;-69
2022/04/21 14:25:52;;;;;;;5.70;3.25;;;;;;;;;;5029873;28;20039;-69
2022/04/21 14:28:18;;;;;;;3.70;3.30;;;;;;;;;;5028191;28;20064;-69
2022/04/21 14:30:43;;;;;;;4.43;3.20;;;;;;;;;;5031484;28;20063;-69
2022/04/21 14:33:09;;;;;;;5.03;3.47;;;;;;;;;;5031308;28;20437;-69
2022/04/21 14:35:38;;;;;;;3.95;3.28;;;;;;;;;;5030616;28;20044;-68
2022/04/21 14:46:16;;;;;;;4.40;3.45;;;;;;;;;;5029709;28;20037;-68
2022/04/21 14:48:42;;;;;;;4.65;3.33;;;;;;;;;;5024673;28;20114;-68
2022/04/21 14:51:08;;;;;;;3.70;3.33;;;;;;;;;;5022049;28;20044;-69
2022/04/21 14:53:33;;;;;;;3.40;3.10;;;;;;;;;;5022692;28;20049;-68
2022/04/21 14:55:58;;;;;;;3.63;3.33;;;;;;;;;;5022704;28;20072;-68
2022/04/21 14:58:24;;;;;;;4.18;3.45;;;;;;;;;;5022920;28;20029;-68
2022/04/21 15:00:49;;;;;;;4.20;3.53;;;;;;;;;;5026713;28;20063;-68
2022/04/21 15:03:17;;;;;;;5.00;3.45;;;;;;;;;;5023004;28;20466;-69
2022/04/21 15:08:40;;;;;;;7.43;3.53;;;;;;;;;;5346032;22;20056;-69
2022/04/21 15:11:06;;;;;;;6.10;3.67;;;;;;;;;;4992728;28;20116;-70
2022/04/21 15:13:32;;;;;;;4.97;3.50;;;;;;;;;;4990017;28;20057;-70
2022/04/21 15:15:57;;;;;;;3.85;3.22;;;;;;;;;;4995441;28;20022;-69
2022/04/21 15:18:23;;;;;;;3.88;3.38;;;;;;;;;;4982884;28;20038;-69
2022/04/21 15:21:26;;;;;;;4.47;3.35;;;;;;;;;;4984536;28;20069;-69
2022/04/21 15:23:51;;;;;;;5.15;3.53;;;;;;;;;;4964837;28;20605;-69
2022/04/21 15:26:17;;;;;;;5.85;3.33;;;;;;;;;;4983047;28;20314;-69
2022/04/21 15:28:43;;;;;;;7.38;3.47;;;;;;;;;;4983157;28;20042;-69
2022/04/21 15:31:09;;;;;;;10.57;3.35;;;;;;;;;;4981858;28;20038;-69
2022/04/21 15:33:34;;;;;;;6.57;3.55;;;;;;;;;;4982544;28;20084;-69
2022/04/21 15:35:59;;;;;;;5.47;3.15;;;;;;;;;;4981408;28;20816;-69
2022/04/21 15:38:25;;;;;;;7.57;3.25;;;;;;;;;;4983243;28;20431;-70
2022/04/21 15:40:50;;;;;;;5.28;3.78;;;;;;;;;;4982567;28;20062;-69
2022/04/21 15:43:16;;;;;;;6.35;3.63;;;;;;;;;;4983014;28;20053;-69
2022/04/21 15:45:43;;;;;;;7.00;3.90;;;;;;;;;;4981054;28;20049;-69